Terminal Aerodrome Forecast
Issued by NWS Jackson, KY

Home | Current Version | Previous Version | Text Only | Print | Product List | Glossary On
Versions: 1 2 3 4 5 6 7 8 9 10 11 12 13 14 15 16 17 18
937
FTUS43 KJKL 281720
TAFLOZ
TAF
KLOZ 281720Z 2818/2918 25010KT P6SM VCTS BKN035CB
     FM282200 26010KT P6SM SCT050 SCT200
     FM290500 VRB03KT 4SM BR SCT250=

USA.gov is the U.S. government's official web portal to all federal, state and local government web resources and services.